Time;durP1;ratioP1;P1;durP2;ratioP2;P2;SDS_P1;SDS_P2;PMS_P1;PMS_P2;Temp;Humidity;BMP_temperature;BMP_pressure;BME280_temperature;BME280_humidity;BME280_pressure;Samples;Min_cycle;Max_cycle;Signal;HPM_P1;HPM_P2
2021/04/26 00:08:52;;;;;;;16.15;7.92;;;;;;;7.16;56.30;98980.91;1636341;83;21344;-92
2021/04/26 06:11:07;;;;;;;;;;;;;;;;;;;;;
2021/04/26 06:13:45;;;;;;;18.07;8.55;;;;;;;9.39;61.90;99240.42;1740117;81;21321;-93
2021/04/26 06:16:29;;;;;;;15.83;8.00;;;;;;;9.44;60.90;99244.22;1769255;78;21274;-89
2021/04/26 06:18:59;;;;;;;21.23;8.53;;;;;;;9.46;62.05;99242.45;1804984;76;21265;-93
2021/04/26 06:21:36;;;;;;;17.73;8.53;;;;;;;9.49;61.93;99239.36;1752775;78;21198;-89
2021/04/26 06:24:22;;;;;;;18.45;6.95;;;;;;;9.62;61.90;99240.43;1766011;81;21181;-91
2021/04/26 06:26:51;;;;;;;14.50;6.78;;;;;;;9.76;60.92;99240.56;1729465;82;21492;-89
2021/04/26 06:29:27;;;;;;;13.05;7.10;;;;;;;9.89;60.62;99233.41;1693338;84;21186;-89
2021/04/26 06:31:55;;;;;;;14.68;7.65;;;;;;;10.03;60.05;99237.02;1704081;84;21162;-88
2021/04/26 06:34:28;;;;;;;15.55;7.78;;;;;;;10.03;60.22;99234.42;1680524;84;21135;-88
2021/04/26 06:37:38;;;;;;;17.30;7.77;;;;;;;10.08;60.40;99232.56;1682002;84;21175;-87
2021/04/26 06:40:09;;;;;;;15.18;7.40;;;;;;;10.20;60.36;99226.70;1705480;84;21183;-87
2021/04/26 06:42:38;;;;;;;15.23;7.70;;;;;;;10.30;60.15;99226.50;1668725;86;21296;-88
2021/04/26 06:51:49;;;;;;;15.93;7.60;;;;;;;10.71;59.31;99231.67;1676511;85;21264;-90
2021/04/26 07:00:56;;;;;;;14.85;6.80;;;;;;;11.21;58.69;99230.02;1684774;82;21213;-94
2021/04/26 07:03:25;;;;;;;15.13;7.50;;;;;;;11.17;58.00;99196.72;1666392;86;21320;-92
2021/04/26 07:38:15;;;;;;;13.35;7.05;;;;;;;13.18;51.70;99225.56;1724740;81;21269;-93
2021/04/26 07:40:44;;;;;;;16.02;7.15;;;;;;;13.47;51.97;99231.98;1709962;81;21298;-93
2021/04/26 07:43:12;;;;;;;15.98;7.58;;;;;;;13.41;50.25;99223.06;1725199;79;21314;-94
2021/04/26 07:45:48;;;;;;;14.43;6.75;;;;;;;13.43;48.15;99226.90;1675804;82;22721;31
2021/04/26 07:54:41;;;;;;;12.88;5.90;;;;;;;14.03;49.47;99218.25;1747117;79;21362;-94
2021/04/26 07:57:09;;;;;;;11.08;6.03;;;;;;;14.40;49.21;99222.91;1756048;80;21792;-92
2021/04/26 07:59:37;;;;;;;12.63;6.55;;;;;;;14.67;46.77;99228.02;1778507;81;21159;-94
2021/04/26 08:06:04;;;;;;;15.07;5.80;;;;;;;14.96;43.68;99211.58;1741046;79;22792;31
2021/04/26 08:18:42;;;;;;;12.28;6.00;;;;;;;15.83;40.63;99204.39;1659210;80;21349;-93
2021/04/26 08:21:10;;;;;;;12.03;5.83;;;;;;;15.88;37.77;99195.41;1756510;80;21286;-94
2021/04/26 08:23:42;;;;;;;10.78;5.92;;;;;;;15.81;39.30;99203.14;1772596;81;21285;-92
2021/04/26 08:26:34;;;;;;;15.78;8.98;;;;;;;15.59;37.78;99192.73;1740912;78;21169;31
2021/04/26 08:29:01;;;;;;;9.35;5.30;;;;;;;15.65;39.16;99192.92;1715327;82;21198;-94
2021/04/26 08:37:23;;;;;;;12.37;5.40;;;;;;;15.68;39.50;99209.37;1729689;78;22535;-92
2021/04/26 08:39:50;;;;;;;13.95;5.12;;;;;;;15.69;39.90;99208.44;1750812;81;21687;-90
2021/04/26 08:42:21;;;;;;;11.28;5.45;;;;;;;15.63;38.96;99213.95;1754768;80;21179;-90
2021/04/26 08:44:56;;;;;;;13.32;5.55;;;;;;;15.63;37.37;99204.78;1729358;80;21213;31
2021/04/26 08:47:25;;;;;;;10.10;4.60;;;;;;;15.64;38.67;99199.10;1662350;85;21621;-92
2021/04/26 08:50:45;;;;;;;9.58;4.80;;;;;;;15.70;39.23;99209.31;1732898;79;21689;-94
2021/04/26 08:53:13;;;;;;;10.00;4.20;;;;;;;15.71;37.60;99200.05;1770256;80;21984;-93
2021/04/26 08:55:40;;;;;;;12.13;4.75;;;;;;;15.79;36.83;99194.50;1752149;80;21281;-93
2021/04/26 08:58:08;;;;;;;10.98;4.30;;;;;;;15.81;32.34;99197.05;1775619;81;21192;-93
2021/04/26 09:00:35;;;;;;;8.98;4.87;;;;;;;15.83;34.28;99197.84;1784622;79;21129;-91
2021/04/26 09:06:26;;;;;;;10.08;4.20;;;;;;;15.67;32.89;99203.72;1707726;80;21131;-92
2021/04/26 09:08:53;;;;;;;9.68;4.25;;;;;;;15.56;34.41;99196.81;1805339;79;21321;-92
2021/04/26 09:11:54;;;;;;;12.60;4.43;;;;;;;15.58;36.29;99205.89;1685442;82;21166;31
2021/04/26 09:17:48;;;;;;;7.33;4.03;;;;;;;15.54;31.61;99202.58;1650790;85;21166;-90
2021/04/26 09:23:33;;;;;;;10.80;4.28;;;;;;;15.47;30.65;99191.97;1733050;78;21312;-94
2021/04/26 09:26:01;;;;;;;10.63;3.47;;;;;;;15.60;31.17;99191.83;1812120;78;21264;-96
2021/04/26 09:28:31;;;;;;;13.62;4.00;;;;;;;15.77;32.30;99183.23;1811387;78;21182;-95
2021/04/26 09:31:02;;;;;;;8.93;3.60;;;;;;;15.88;28.92;99187.55;1801359;79;21316;-94
2021/04/26 09:34:48;;;;;;;8.70;4.17;;;;;;;16.05;29.24;99187.22;1762114;77;21197;-88
2021/04/26 09:37:29;;;;;;;9.10;3.02;;;;;;;15.83;27.16;99183.42;1760960;80;21253;-88
2021/04/26 09:40:23;;;;;;;8.03;3.85;;;;;;;16.10;28.07;99174.30;1776493;81;21270;-88
2021/04/26 09:43:05;;;;;;;5.97;3.20;;;;;;;16.23;26.76;99176.34;1769655;80;21285;-89
2021/04/26 09:46:06;;;;;;;8.38;3.00;;;;;;;16.29;26.44;99170.80;1751129;78;21129;-87
2021/04/26 10:12:26;;;;;;;11.43;3.43;;;;;;;17.21;23.69;99148.37;1674607;80;22634;-82
2021/04/26 12:11:50;;;;;;;11.05;3.00;;;;;;;20.63;18.96;99021.94;1667368;81;21231;-89
2021/04/26 12:14:20;;;;;;;8.98;3.20;;;;;;;20.75;18.37;99027.31;1614500;88;21249;-88
2021/04/26 12:20:01;;;;;;;5.00;2.90;;;;;;;21.09;19.17;99019.70;1722935;81;21209;-90
2021/04/26 12:42:21;;;;;;;16.75;3.40;;;;;;;24.83;16.26;98985.57;1739308;79;21306;-89
2021/04/26 12:48:16;;;;;;;7.90;2.60;;;;;;;25.81;15.37;98983.62;1631339;80;21122;-88
2021/04/26 12:51:06;;;;;;;4.92;2.40;;;;;;;25.77;11.80;98976.89;1776542;79;21670;-92
2021/04/26 12:57:00;;;;;;;6.25;3.22;;;;;;;27.27;11.74;98955.42;1705626;82;21158;-93
2021/04/26 13:21:43;;;;;;;5.60;2.60;;;;;;;28.12;9.79;98939.13;1757172;77;22434;-90
2021/04/26 13:29:57;;;;;;;9.28;2.40;;;;;;;27.72;10.26;98927.05;1645362;83;21187;-88
2021/04/26 13:32:25;;;;;;;5.80;2.50;;;;;;;26.88;11.54;98931.58;1625449;87;21338;-88
2021/04/26 13:41:27;;;;;;;5.87;3.20;;;;;;;26.17;12.27;98924.01;1700893;80;21332;31
2021/04/26 13:47:02;;;;;;;7.42;3.45;;;;;;;24.79;16.02;98938.50;1674710;81;21588;-90
2021/04/26 13:52:47;;;;;;;6.80;2.98;;;;;;;23.62;16.79;98929.15;1669680;81;21625;-87
2021/04/26 13:55:26;;;;;;;7.67;3.33;;;;;;;23.06;17.72;98927.95;1667594;81;21247;31
2021/04/26 14:01:13;;;;;;;14.80;3.60;;;;;;;22.46;18.21;98915.34;1682110;80;21202;31
2021/04/26 14:03:43;;;;;;;6.92;3.62;;;;;;;22.49;17.91;98908.50;1681046;83;21581;-86
2021/04/26 14:06:12;;;;;;;5.22;3.00;;;;;;;22.18;18.14;98911.28;1654359;85;21217;-86
2021/04/26 14:08:40;;;;;;;5.20;3.33;;;;;;;22.04;18.50;98909.23;1678920;84;21817;-86
2021/04/26 14:11:08;;;;;;;7.22;3.42;;;;;;;21.72;18.98;98916.06;1678736;85;21324;-85
2021/04/26 14:13:37;;;;;;;4.95;3.02;;;;;;;21.87;19.25;98909.64;1678739;85;21301;-86
2021/04/26 14:16:06;;;;;;;7.28;3.10;;;;;;;22.27;18.53;98915.92;1715341;82;21179;-86
2021/04/26 14:18:40;;;;;;;5.47;2.95;;;;;;;22.44;18.50;98905.34;1723988;78;21339;31
2021/04/26 14:24:26;;;;;;;7.80;3.08;;;;;;;21.41;19.65;98882.59;1717020;80;21187;-86
2021/04/26 14:33:08;;;;;;;7.33;3.15;;;;;;;21.38;19.30;98898.67;1653496;82;21179;-83
2021/04/26 14:35:38;;;;;;;7.83;3.20;;;;;;;21.03;19.57;98903.39;1714794;79;21284;-85
2021/04/26 14:38:33;;;;;;;7.87;3.60;;;;;;;20.97;19.50;98898.52;1810801;77;28213;-89
2021/04/26 14:44:40;;;;;;;6.75;3.27;;;;;;;20.21;20.40;98896.27;1795636;75;21211;-87
2021/04/26 14:47:10;;;;;;;7.53;3.40;;;;;;;20.00;20.86;98894.14;1901095;75;21203;-88
2021/04/26 14:49:59;;;;;;;6.20;3.17;;;;;;;19.60;21.22;98894.59;1820330;74;21494;31
2021/04/26 14:52:26;;;;;;;9.73;3.00;;;;;;;19.33;21.66;98887.52;1813840;75;21268;-86
2021/04/26 14:58:04;;;;;;;12.15;3.95;;;;;;;19.09;21.64;98871.48;1771161;77;21118;-85
2021/04/26 15:00:34;;;;;;;7.42;3.50;;;;;;;19.11;21.82;98866.97;1755316;82;21256;-88
2021/04/26 15:06:12;;;;;;;10.72;4.70;;;;;;;18.92;21.68;98873.02;1826376;75;21162;-87
2021/04/26 15:08:39;;;;;;;12.93;4.62;;;;;;;18.94;22.42;98867.18;1821112;74;21281;-88
2021/04/26 15:11:06;;;;;;;9.40;3.40;;;;;;;19.26;21.84;98864.67;1794342;80;21293;-86
2021/04/26 15:13:34;;;;;;;9.40;3.87;;;;;;;19.35;21.91;98856.63;1796104;79;21297;-84
2021/04/26 15:16:01;;;;;;;7.75;3.62;;;;;;;19.22;22.33;98851.32;1776488;80;21301;-84
2021/04/26 15:18:31;;;;;;;8.95;2.83;;;;;;;19.10;22.76;98850.80;1785819;79;21134;-86
2021/04/26 15:20:58;;;;;;;6.03;3.22;;;;;;;18.97;20.67;98852.03;1761942;79;21280;-86
2021/04/26 15:23:26;;;;;;;8.28;3.52;;;;;;;18.76;22.26;98863.44;1787624;74;21305;-87
2021/04/26 15:25:54;;;;;;;8.70;3.33;;;;;;;18.52;22.83;98864.94;1788837;79;21285;-85
2021/04/26 15:28:22;;;;;;;8.45;3.65;;;;;;;18.20;23.12;98863.78;1789396;79;21414;-85
2021/04/26 15:30:51;;;;;;;8.45;3.27;;;;;;;17.96;22.93;98871.36;1778904;80;21269;-86
2021/04/26 15:33:18;;;;;;;7.62;3.22;;;;;;;17.68;23.29;98872.94;1784542;79;21142;-86
2021/04/26 15:35:46;;;;;;;14.47;5.70;;;;;;;17.49;23.19;98878.42;1822480;77;21253;-85
2021/04/26 15:38:14;;;;;;;13.70;7.55;;;;;;;17.17;24.36;98874.95;1812847;74;21295;-86
2021/04/26 15:40:44;;;;;;;16.87;6.37;;;;;;;16.85;25.20;98869.25;1817593;79;21275;-86
2021/04/26 15:43:14;;;;;;;8.98;4.40;;;;;;;16.63;25.96;98871.28;1800328;79;21291;-86
2021/04/26 15:45:43;;;;;;;13.65;4.62;;;;;;;16.28;26.44;98838.12;1785654;80;21122;-86
2021/04/26 15:48:15;;;;;;;14.25;5.03;;;;;;;16.23;26.45;98856.33;1784142;77;21358;-85
2021/04/26 15:50:46;;;;;;;12.15;5.33;;;;;;;16.06;26.63;98861.99;1799147;75;21075;-86
2021/04/26 15:53:18;;;;;;;11.45;4.92;;;;;;;16.03;26.23;98862.14;1863730;77;21230;-87
2021/04/26 15:55:47;;;;;;;9.25;3.58;;;;;;;15.95;26.60;98853.81;1863899;77;21244;-87
2021/04/26 15:58:15;;;;;;;11.12;3.98;;;;;;;15.90;26.66;98842.73;1863863;77;21245;-88
2021/04/26 16:00:44;;;;;;;10.20;3.72;;;;;;;15.81;26.64;98837.48;1829056;77;21260;-88
2021/04/26 16:03:14;;;;;;;12.47;3.37;;;;;;;15.63;27.26;98836.59;1863833;73;21265;-88
2021/04/26 16:05:42;;;;;;;7.28;3.25;;;;;;;15.54;26.97;98836.20;1830538;74;21324;-90
2021/04/26 16:08:17;;;;;;;7.12;3.02;;;;;;;15.43;27.10;98835.44;1798350;74;21343;31
2021/04/26 16:10:47;;;;;;;6.33;3.02;;;;;;;15.34;27.08;98831.50;1762160;81;21168;-93
2021/04/26 16:13:15;;;;;;;7.50;3.15;;;;;;;15.17;28.01;98804.81;1787610;74;21127;-92
2021/04/26 16:15:45;;;;;;;14.63;3.40;;;;;;;15.33;27.53;98826.34;1775806;79;21146;-92
2021/04/26 16:18:15;;;;;;;5.50;2.95;;;;;;;15.19;27.37;98834.86;1796916;79;21246;-88
2021/04/26 16:20:42;;;;;;;10.48;3.45;;;;;;;15.16;27.31;98837.17;1819570;74;21133;-91
2021/04/26 16:23:11;;;;;;;9.03;3.33;;;;;;;15.00;27.83;98830.95;1831138;75;21268;-87
2021/04/26 16:25:39;;;;;;;9.60;3.50;;;;;;;14.91;27.45;98840.09;1798566;77;21189;-86
2021/04/26 16:28:06;;;;;;;8.73;3.72;;;;;;;14.82;27.42;98834.84;1798371;80;21149;-85
2021/04/26 16:30:34;;;;;;;7.62;2.95;;;;;;;14.76;27.48;98836.41;1798189;80;21265;-85
2021/04/26 16:33:02;;;;;;;7.15;2.87;;;;;;;14.66;27.71;98829.47;1798110;77;21221;-86
2021/04/26 16:35:29;;;;;;;8.73;3.10;;;;;;;14.51;27.53;98839.28;1798364;80;21283;-85
2021/04/26 16:37:57;;;;;;;5.87;3.22;;;;;;;14.47;27.66;98832.49;1852909;77;21484;-86
2021/04/26 16:40:25;;;;;;;6.90;2.95;;;;;;;14.41;27.84;98832.77;1794626;80;21257;-87
2021/04/26 16:42:53;;;;;;;9.10;5.72;;;;;;;14.41;27.76;98840.63;1794505;80;21301;-85
2021/04/26 16:48:00;;;;;;;10.70;3.22;;;;;;;14.30;29.40;98836.72;1820127;78;22919;-91
2021/04/26 16:50:29;;;;;;;7.95;3.33;;;;;;;14.24;28.39;98835.66;1817898;79;21276;-92
2021/04/26 16:52:56;;;;;;;7.67;2.95;;;;;;;14.21;28.85;98832.36;1765752;77;21283;-90
2021/04/26 16:55:26;;;;;;;7.03;2.85;;;;;;;14.13;28.52;98837.91;1741311;78;21086;-86
2021/04/26 16:57:54;;;;;;;8.25;2.65;;;;;;;14.05;28.32;98840.02;1745563;78;21321;-92
2021/04/26 17:00:23;;;;;;;11.28;3.62;;;;;;;13.97;28.58;98844.27;1697008;80;21953;-93
2021/04/26 17:02:54;;;;;;;10.00;2.98;;;;;;;13.96;28.18;98839.94;1721046;83;21305;-93
2021/04/26 17:05:20;;;;;;;9.90;3.42;;;;;;;13.91;28.83;98845.84;1743679;78;21288;-93
2021/04/26 17:07:47;;;;;;;31.00;14.75;;;;;;;13.87;28.43;98848.19;1747604;82;21356;-91
2021/04/26 17:10:15;;;;;;;13.20;5.78;;;;;;;13.82;29.49;98848.83;1749119;82;21279;-93
2021/04/26 17:12:43;;;;;;;10.72;4.10;;;;;;;13.77;29.45;98842.50;1749452;82;21290;-92
2021/04/26 17:15:11;;;;;;;10.08;3.52;;;;;;;13.72;29.45;98841.37;1749296;82;21141;-93
2021/04/26 17:17:38;;;;;;;7.25;2.92;;;;;;;13.72;28.71;98832.22;1749782;82;21271;-94
2021/04/26 17:20:08;;;;;;;10.82;5.12;;;;;;;13.65;29.09;98825.58;1730185;79;21212;-92
2021/04/26 17:22:37;;;;;;;6.83;3.50;;;;;;;13.61;28.81;98825.31;1736976;79;21167;-95
2021/04/26 17:25:09;;;;;;;8.98;3.22;;;;;;;13.58;29.36;98825.42;1763022;81;21182;-92
2021/04/26 17:27:37;;;;;;;7.85;3.37;;;;;;;13.53;29.02;98813.88;1724687;80;21177;-92
2021/04/26 17:30:07;;;;;;;6.87;3.58;;;;;;;13.46;29.86;98807.20;1723255;80;21774;-91
2021/04/26 17:32:36;;;;;;;10.93;4.35;;;;;;;13.41;29.77;98814.39;1708251;83;21164;-94
2021/04/26 17:35:07;;;;;;;5.70;3.20;;;;;;;13.38;29.69;98818.88;1750093;79;21338;-94
2021/04/26 17:37:38;;;;;;;9.55;3.90;;;;;;;13.30;30.02;98829.63;1699872;80;21756;-95
2021/04/26 17:40:12;;;;;;;11.95;3.65;;;;;;;13.30;30.67;98829.63;1736722;80;21263;-94
2021/04/26 17:42:40;;;;;;;10.35;3.92;;;;;;;13.29;30.17;98837.02;1725109;80;21198;-94
2021/04/26 17:48:01;;;;;;;7.25;3.42;;;;;;;13.21;30.09;98843.88;1778247;80;21153;-94
2021/04/26 17:50:30;;;;;;;11.50;3.92;;;;;;;13.17;30.88;98848.83;1720557;80;21280;-92
2021/04/26 17:52:57;;;;;;;8.65;3.70;;;;;;;13.18;30.49;98855.73;1712421;84;21161;-92
2021/04/26 17:55:28;;;;;;;6.60;3.22;;;;;;;13.10;30.35;98853.89;1726708;79;21364;-92
2021/04/26 17:58:26;;;;;;;10.08;3.35;;;;;;;13.05;30.58;98867.55;1748004;82;21176;-94
2021/04/26 18:00:53;;;;;;;7.45;3.10;;;;;;;12.98;30.39;98868.27;1744138;81;21181;-94
2021/04/26 18:03:22;;;;;;;9.58;4.03;;;;;;;12.94;30.41;98864.91;1734663;82;21308;-93
2021/04/26 18:05:49;;;;;;;7.95;3.15;;;;;;;12.91;30.84;98866.35;1746125;82;21157;-92
2021/04/26 18:08:19;;;;;;;8.55;3.20;;;;;;;12.81;32.00;98866.31;1746770;82;21300;-91
2021/04/26 18:10:46;;;;;;;8.80;4.12;;;;;;;12.77;32.00;98867.77;1746753;81;21423;-92
2021/04/26 18:13:14;;;;;;;8.40;3.50;;;;;;;12.74;31.49;98864.83;1729920;82;21161;-91
2021/04/26 18:15:41;;;;;;;8.15;3.40;;;;;;;12.74;31.80;98863.52;1746785;82;21315;-92
2021/04/26 18:18:09;;;;;;;8.28;3.60;;;;;;;12.71;31.86;98880.58;1747527;81;21131;-92
2021/04/26 18:20:37;;;;;;;9.85;3.50;;;;;;;12.69;31.67;98886.30;1747270;81;21336;-92
2021/04/26 18:23:05;;;;;;;11.95;4.47;;;;;;;12.67;31.50;98893.34;1747148;81;21610;-92
2021/04/26 18:25:34;;;;;;;14.75;4.83;;;;;;;12.62;32.26;98899.20;1745770;82;21304;-92
2021/04/26 18:28:01;;;;;;;11.28;4.58;;;;;;;12.63;31.35;98904.79;1732158;80;21492;-92
2021/04/26 18:30:29;;;;;;;10.32;5.20;;;;;;;12.65;31.22;98892.55;1735315;82;21273;-91
2021/04/26 18:32:56;;;;;;;19.35;7.47;;;;;;;12.57;31.75;98889.38;1742073;82;21300;-91
2021/04/26 18:35:24;;;;;;;15.95;5.12;;;;;;;12.52;31.89;98899.98;1752065;80;21323;-91
2021/04/26 18:37:51;;;;;;;11.75;3.98;;;;;;;12.48;32.79;98903.61;1750210;78;21143;-85
2021/04/26 18:40:19;;;;;;;10.72;4.62;;;;;;;12.46;32.33;98904.95;1779131;78;21304;-91
2021/04/26 18:42:46;;;;;;;8.35;4.28;;;;;;;12.44;32.52;98921.11;1786398;80;21275;-90
2021/04/26 18:45:16;;;;;;;7.67;3.67;;;;;;;12.38;32.26;98927.84;1784300;80;21275;-93
2021/04/26 18:47:44;;;;;;;13.68;3.65;;;;;;;12.30;32.32;98915.08;1738328;80;21352;-92
2021/04/26 18:50:12;;;;;;;9.60;3.35;;;;;;;12.27;32.08;98900.83;1752043;79;21311;-93
2021/04/26 18:52:41;;;;;;;16.80;5.20;;;;;;;12.25;32.60;98926.56;1755466;82;21325;-92
2021/04/26 18:55:11;;;;;;;7.15;3.80;;;;;;;12.19;32.83;98922.86;1754208;82;21320;-92
2021/04/26 18:57:39;;;;;;;10.53;3.58;;;;;;;12.19;32.34;98923.70;1738123;79;21320;-92
2021/04/26 19:00:09;;;;;;;13.03;3.15;;;;;;;12.13;32.32;98933.04;1749071;80;21300;-94
2021/04/26 19:02:37;;;;;;;14.73;4.22;;;;;;;12.11;33.07;98930.48;1730456;79;21230;-91
2021/04/26 19:05:06;;;;;;;9.73;4.28;;;;;;;12.12;33.04;98936.11;1730005;82;21191;-94
2021/04/26 19:07:34;;;;;;;8.40;3.70;;;;;;;12.12;32.17;98927.45;1743351;79;22080;-91
2021/04/26 19:10:01;;;;;;;12.23;3.85;;;;;;;12.12;32.65;98937.41;1748976;82;21641;-94
2021/04/26 19:15:16;;;;;;;9.05;3.17;;;;;;;12.12;32.23;98942.63;1691754;85;21362;-94
2021/04/26 19:17:43;;;;;;;8.90;3.17;;;;;;;12.11;32.12;98942.67;1752315;80;21247;-92
2021/04/26 19:20:13;;;;;;;10.15;3.20;;;;;;;12.12;32.45;98937.88;1773083;79;21315;-94
2021/04/26 19:22:43;;;;;;;6.72;2.83;;;;;;;12.09;32.18;98927.08;1737537;80;21325;-93
2021/04/26 19:25:19;;;;;;;7.95;3.40;;;;;;;12.10;32.14;98930.09;1730765;79;21167;-92
2021/04/26 19:27:47;;;;;;;9.10;3.00;;;;;;;12.13;31.91;98939.55;1710502;78;21336;-92
2021/04/26 19:30:18;;;;;;;14.60;3.17;;;;;;;12.11;32.26;98942.67;1691126;84;21340;-92
2021/04/26 19:32:49;;;;;;;8.40;3.47;;;;;;;12.08;32.05;98946.70;1740058;80;21253;-89
2021/04/26 19:35:23;;;;;;;10.58;3.50;;;;;;;12.02;32.21;98954.27;1736717;80;21185;-93
2021/04/26 19:37:57;;;;;;;8.18;3.55;;;;;;;11.95;32.02;98938.42;1672419;80;21189;-93
2021/04/26 19:40:27;;;;;;;11.30;3.85;;;;;;;11.98;32.67;98942.23;1728128;80;21144;-91
2021/04/26 19:42:56;;;;;;;11.60;3.60;;;;;;;12.00;32.33;98936.53;1747404;80;21753;-91
2021/04/26 19:48:11;;;;;;;10.38;3.50;;;;;;;11.98;32.66;98929.22;1801069;76;21302;-92
2021/04/26 19:50:41;;;;;;;10.50;3.37;;;;;;;11.98;32.10;98948.75;1740121;80;21268;-88
2021/04/26 19:56:08;;;;;;;8.20;3.15;;;;;;;11.90;35.83;98952.06;1660159;86;21348;-95
2021/04/26 19:58:36;;;;;;;5.53;3.12;;;;;;;11.90;37.31;98953.37;1696010;81;21272;-92
2021/04/26 20:01:04;;;;;;;6.58;3.10;;;;;;;11.83;39.90;98951.36;1733278;79;21131;-92
2021/04/26 20:03:32;;;;;;;10.90;3.15;;;;;;;11.80;39.73;98950.60;1734409;81;21199;-94
2021/04/26 20:05:59;;;;;;;8.63;3.02;;;;;;;11.70;41.26;98947.47;1790187;80;21176;-91
2021/04/26 20:08:27;;;;;;;7.75;3.33;;;;;;;11.67;41.58;98941.89;1795501;80;21137;-94
2021/04/26 20:10:54;;;;;;;8.90;3.67;;;;;;;11.60;41.58;98933.89;1764623;81;21289;-93
2021/04/26 20:13:22;;;;;;;9.30;3.50;;;;;;;11.60;39.63;98933.02;1796240;80;21303;-95
2021/04/26 20:15:49;;;;;;;11.40;3.45;;;;;;;11.61;41.13;98929.52;1766504;80;21652;-93
2021/04/26 20:18:17;;;;;;;8.05;3.87;;;;;;;11.54;41.46;98925.82;1764801;81;21167;-94
2021/04/26 20:20:46;;;;;;;9.10;3.17;;;;;;;11.50;43.10;98924.22;1720815;81;21320;-91
2021/04/26 20:23:13;;;;;;;10.60;3.15;;;;;;;11.51;41.50;98918.55;1764452;78;21201;-93
2021/04/26 20:25:41;;;;;;;7.40;2.95;;;;;;;11.47;41.07;98916.48;1764578;80;21336;-90
2021/04/26 20:28:09;;;;;;;8.80;3.67;;;;;;;11.45;42.74;98923.95;1765053;81;21311;-94
2021/04/26 20:30:36;;;;;;;6.28;3.12;;;;;;;11.39;42.32;98930.20;1764504;80;21193;-91
2021/04/26 20:33:04;;;;;;;6.97;3.20;;;;;;;11.31;44.05;98930.89;1781372;79;21306;-92
2021/04/26 20:35:32;;;;;;;9.05;3.42;;;;;;;11.27;44.67;98933.18;1789911;80;21204;-94
2021/04/26 20:38:01;;;;;;;11.03;3.50;;;;;;;11.22;45.77;98934.63;1761256;79;21161;-95
2021/04/26 20:40:41;;;;;;;6.33;2.90;;;;;;;11.13;48.55;98944.00;1768390;81;21253;-95
2021/04/26 20:43:11;;;;;;;7.87;3.27;;;;;;;11.06;48.43;98953.75;1773433;81;21307;-94
2021/04/26 20:45:39;;;;;;;9.25;3.87;;;;;;;10.95;46.81;98946.23;1789107;80;21315;-94
2021/04/26 20:48:07;;;;;;;6.50;3.30;;;;;;;10.79;52.19;98950.64;1800812;80;21165;-93
2021/04/26 20:50:35;;;;;;;8.00;3.80;;;;;;;10.65;50.60;98954.92;1799364;80;21255;-94
